createdAt,value
2023-02-05T00:01:26.296Z,6.90
2023-02-05T00:03:53.167Z,5.78
2023-02-05T00:06:20.062Z,8.32
2023-02-05T00:08:47.216Z,6.63
2023-02-05T00:11:14.100Z,7.78
2023-02-05T00:13:42.899Z,8.43
2023-02-05T00:16:15.755Z,8.15
2023-02-05T00:18:43.289Z,10.32
2023-02-05T00:21:11.992Z,13.27
2023-02-05T00:23:39.429Z,9.15
2023-02-05T00:26:07.616Z,9.80
2023-02-05T00:28:36.051Z,9.18
2023-02-05T00:31:11.963Z,9.70
2023-02-05T00:33:39.074Z,7.07
2023-02-05T00:36:06.513Z,10.75
2023-02-05T00:38:33.466Z,7.53
2023-02-05T00:41:00.651Z,7.95
2023-02-05T00:43:27.900Z,8.02
2023-02-05T00:45:55.008Z,8.10
2023-02-05T00:48:22.482Z,7.20
2023-02-05T00:50:53.089Z,6.65
2023-02-05T00:53:21.159Z,6.80
2023-02-05T00:55:48.023Z,6.30
2023-02-05T00:58:14.957Z,7.05
2023-02-05T01:00:42.158Z,8.27
2023-02-05T01:03:09.529Z,6.15
2023-02-05T01:05:38.744Z,8.45
2023-02-05T01:08:07.433Z,4.90
2023-02-05T01:10:34.839Z,5.82
2023-02-05T01:13:04.565Z,6.13
2023-02-05T01:15:32.482Z,6.50
2023-02-05T01:18:02.655Z,7.38
2023-02-05T01:20:29.552Z,5.75
2023-02-05T01:22:56.696Z,6.90
2023-02-05T01:25:23.771Z,6.38
2023-02-05T01:27:50.684Z,4.60
2023-02-05T01:30:17.750Z,7.07
2023-02-05T01:32:44.698Z,5.30
2023-02-05T01:35:11.646Z,4.85
2023-02-05T01:37:38.606Z,7.60
2023-02-05T01:40:06.065Z,11.90
2023-02-05T01:42:33.681Z,9.75
2023-02-05T01:45:57.731Z,6.50
2023-02-05T01:48:32.614Z,5.60
2023-02-05T01:51:04.343Z,5.47
2023-02-05T01:53:36.332Z,5.65
2023-02-05T01:56:19.705Z,4.93
2023-02-05T01:58:53.677Z,3.80
2023-02-05T02:01:20.641Z,4.60
2023-02-05T02:03:50.230Z,4.53
2023-02-05T02:06:17.200Z,5.22
2023-02-05T02:08:44.132Z,6.18
2023-02-05T02:11:13.388Z,5.50
2023-02-05T02:13:41.606Z,3.63
2023-02-05T02:16:09.623Z,3.88
2023-02-05T02:18:39.427Z,6.13
2023-02-05T02:21:40.476Z,3.00
2023-02-05T02:24:23.053Z,3.42
2023-02-05T02:27:21.141Z,4.28
2023-02-05T02:29:59.249Z,4.55
2023-02-05T02:32:46.511Z,6.45
2023-02-05T02:35:24.938Z,5.75
2023-02-05T02:38:05.142Z,6.53
2023-02-05T02:40:42.094Z,2.20
2023-02-05T02:43:22.500Z,3.70
2023-02-05T02:46:00.136Z,9.65
2023-02-05T02:48:29.488Z,6.28
2023-02-05T02:50:58.644Z,6.82
2023-02-05T02:53:29.851Z,9.68
2023-02-05T02:55:58.704Z,3.88
2023-02-05T02:58:50.258Z,4.10
2023-02-05T03:01:21.257Z,6.15
2023-02-05T03:03:56.427Z,3.80
2023-02-05T03:06:23.417Z,5.97
2023-02-05T03:08:52.800Z,4.30
2023-02-05T03:11:19.696Z,7.70
2023-02-05T03:13:47.435Z,4.85
2023-02-05T03:16:16.835Z,4.75
2023-02-05T03:18:43.975Z,6.50
2023-02-05T03:21:21.410Z,5.20
2023-02-05T03:23:49.304Z,4.95
2023-02-05T03:26:31.582Z,5.35
2023-02-05T03:29:03.444Z,4.50
2023-02-05T03:34:25.310Z,4.60
2023-02-05T03:39:38.279Z,6.22
2023-02-05T03:42:13.157Z,4.50
2023-02-05T03:44:58.938Z,5.05
2023-02-05T03:47:40.791Z,5.35
2023-02-05T03:50:27.998Z,3.45
2023-02-05T03:53:07.295Z,4.00
2023-02-05T03:55:41.165Z,4.28
2023-02-05T03:58:18.768Z,3.50
2023-02-05T04:00:46.263Z,5.60
2023-02-05T04:03:13.917Z,4.35
2023-02-05T04:05:40.868Z,6.28
2023-02-05T04:08:07.866Z,4.38
2023-02-05T04:10:34.749Z,4.88
2023-02-05T04:13:01.679Z,5.90
2023-02-05T04:15:28.668Z,5.30
2023-02-05T04:17:58.007Z,4.53
2023-02-05T04:20:24.980Z,3.92
2023-02-05T04:22:51.913Z,5.35
2023-02-05T04:25:18.852Z,4.53
2023-02-05T04:27:45.725Z,3.88
2023-02-05T04:30:13.210Z,7.43
2023-02-05T04:32:40.072Z,6.10
2023-02-05T04:35:07.131Z,6.68
2023-02-05T04:37:34.112Z,9.13
2023-02-05T04:40:01.073Z,3.78
2023-02-05T04:42:28.054Z,4.57
2023-02-05T04:44:55.168Z,8.18
2023-02-05T04:47:22.080Z,9.13
2023-02-05T04:49:48.991Z,7.93
2023-02-05T04:52:15.901Z,5.75
2023-02-05T04:54:42.761Z,6.32
2023-02-05T04:57:09.617Z,6.18
2023-02-05T04:59:36.499Z,5.28
2023-02-05T05:02:03.515Z,3.78
2023-02-05T05:04:30.558Z,5.20
2023-02-05T05:06:59.084Z,5.38
2023-02-05T05:09:25.973Z,4.97
2023-02-05T05:11:53.782Z,6.50
2023-02-05T05:14:20.734Z,5.75
2023-02-05T05:16:49.616Z,6.38
2023-02-05T05:19:16.624Z,5.72
2023-02-05T05:21:43.556Z,5.22
2023-02-05T05:24:10.484Z,7.88
2023-02-05T05:26:39.319Z,5.70
2023-02-05T05:29:06.403Z,6.30
2023-02-05T05:31:33.317Z,7.05
2023-02-05T05:34:00.187Z,9.85
2023-02-05T05:36:27.141Z,10.27
2023-02-05T05:38:54.032Z,7.00
2023-02-05T05:41:43.369Z,8.88
2023-02-05T05:44:10.373Z,8.07
2023-02-05T05:46:37.303Z,8.57
2023-02-05T05:49:04.423Z,8.13
2023-02-05T05:51:32.695Z,10.02
2023-02-05T05:53:59.916Z,8.35
2023-02-05T05:56:26.829Z,10.52
2023-02-05T05:58:53.787Z,8.95
2023-02-05T06:01:22.970Z,11.15
2023-02-05T06:03:50.530Z,8.27
2023-02-05T06:06:17.735Z,7.88
2023-02-05T06:08:44.697Z,6.35
2023-02-05T06:11:12.236Z,7.20
2023-02-05T06:13:39.339Z,6.32
2023-02-05T06:16:06.641Z,6.95
2023-02-05T06:18:33.797Z,5.32
2023-02-05T06:21:02.350Z,10.02
2023-02-05T06:23:29.402Z,6.22
2023-02-05T06:25:56.871Z,7.28
2023-02-05T06:28:24.075Z,7.78
2023-02-05T06:30:51.206Z,7.53
2023-02-05T06:33:18.271Z,8.30
2023-02-05T06:35:45.179Z,8.27
2023-02-05T06:38:12.088Z,7.53
2023-02-05T06:40:39.009Z,7.47
2023-02-05T06:43:05.952Z,8.02
2023-02-05T06:45:35.433Z,5.95
2023-02-05T06:48:02.574Z,6.03
2023-02-05T06:50:29.688Z,8.02
2023-02-05T06:52:56.596Z,7.35
2023-02-05T06:55:23.514Z,7.10
2023-02-05T06:57:52.497Z,8.13
2023-02-05T07:00:19.703Z,5.10
2023-02-05T07:02:46.787Z,9.40
2023-02-05T07:05:13.677Z,6.32
2023-02-05T07:07:40.680Z,6.50
2023-02-05T07:10:07.904Z,7.35
2023-02-05T07:12:34.853Z,7.35
2023-02-05T07:15:01.730Z,7.97
2023-02-05T07:17:28.657Z,10.95
2023-02-05T07:19:55.678Z,9.77
2023-02-05T07:22:22.636Z,10.88
2023-02-05T07:24:49.517Z,12.80
2023-02-05T07:27:16.448Z,10.02
2023-02-05T07:29:43.512Z,11.65
2023-02-05T07:32:10.534Z,13.07
2023-02-05T07:34:37.547Z,16.80
2023-02-05T07:37:04.978Z,16.17
2023-02-05T07:39:33.502Z,14.05
2023-02-05T07:42:01.026Z,15.50
2023-02-05T07:44:27.930Z,12.77
2023-02-05T07:46:54.931Z,12.75
2023-02-05T07:49:22.165Z,17.98
2023-02-05T07:51:49.196Z,12.30
2023-02-05T07:54:16.293Z,11.73
2023-02-05T07:56:43.197Z,8.82
2023-02-05T07:59:10.326Z,10.32
2023-02-05T08:01:37.320Z,16.00
2023-02-05T08:04:04.378Z,12.07
2023-02-05T08:06:32.355Z,9.38
2023-02-05T08:08:59.299Z,11.73
2023-02-05T08:11:26.317Z,15.35
2023-02-05T08:13:53.374Z,16.98
2023-02-05T08:16:20.290Z,15.77
2023-02-05T08:18:50.869Z,15.82
2023-02-05T08:21:18.913Z,11.27
2023-02-05T08:23:45.814Z,10.55
2023-02-05T08:26:15.027Z,11.90
2023-02-05T08:28:42.782Z,9.65
2023-02-05T08:31:14.773Z,10.98
2023-02-05T08:33:41.925Z,10.82
2023-02-05T08:36:10.496Z,11.65
2023-02-05T08:38:37.499Z,10.45
2023-02-05T08:41:12.717Z,11.27
2023-02-05T08:43:47.298Z,10.30
2023-02-05T08:46:17.708Z,12.18
2023-02-05T08:48:44.669Z,12.70
2023-02-05T08:51:13.176Z,14.50
2023-02-05T08:53:40.779Z,15.73
2023-02-05T08:56:10.689Z,11.68
2023-02-05T08:58:39.032Z,15.27
2023-02-05T09:01:12.492Z,14.75
2023-02-05T09:03:39.613Z,13.15
2023-02-05T09:06:09.224Z,13.07
2023-02-05T09:08:37.048Z,15.52
2023-02-05T09:11:05.362Z,17.17
2023-02-05T09:13:32.563Z,17.83
2023-02-05T09:15:59.478Z,21.13
2023-02-05T09:18:28.544Z,19.35
2023-02-05T09:20:55.452Z,24.20
2023-02-05T09:23:23.114Z,28.58
2023-02-05T09:25:50.043Z,32.85
2023-02-05T09:28:17.009Z,32.38
2023-02-05T09:30:45.644Z,45.35
2023-02-05T09:33:13.694Z,63.33
2023-02-05T09:35:41.443Z,52.53
2023-02-05T09:38:08.437Z,58.13
2023-02-05T09:41:01.827Z,53.88
2023-02-05T09:44:06.343Z,55.58
2023-02-05T09:46:58.117Z,44.08
2023-02-05T09:49:41.253Z,44.72
2023-02-05T09:52:19.952Z,49.22
2023-02-05T09:54:52.349Z,47.65
2023-02-05T09:57:35.777Z,35.83
2023-02-05T10:00:05.906Z,28.67
2023-02-05T10:02:42.089Z,34.15
2023-02-05T10:05:19.687Z,32.45
2023-02-05T10:07:46.494Z,23.67
2023-02-05T10:10:26.440Z,25.38
2023-02-05T10:13:03.892Z,24.50
2023-02-05T10:15:52.694Z,27.55
2023-02-05T10:18:56.749Z,31.88
2023-02-05T10:21:45.106Z,29.77
2023-02-05T10:25:02.304Z,36.05
2023-02-05T10:27:54.903Z,27.83
2023-02-05T10:30:41.653Z,30.25
2023-02-05T10:33:19.474Z,28.23
2023-02-05T10:36:02.521Z,27.92
2023-02-05T10:38:40.123Z,25.65
2023-02-05T10:41:16.430Z,27.38
2023-02-05T10:43:56.393Z,28.13
2023-02-05T10:46:31.249Z,31.55
2023-02-05T10:49:06.941Z,36.13
2023-02-05T10:51:44.904Z,39.35
2023-02-05T10:54:26.634Z,38.95
2023-02-05T10:56:53.948Z,40.67
2023-02-05T10:59:36.312Z,49.13
2023-02-05T11:02:09.754Z,46.25
2023-02-05T11:05:02.627Z,45.95
2023-02-05T11:07:36.370Z,41.55
2023-02-05T11:10:20.334Z,42.70
2023-02-05T11:13:04.693Z,42.35
2023-02-05T11:15:33.783Z,42.17
2023-02-05T11:18:04.805Z,42.80
2023-02-05T11:23:08.323Z,44.60
2023-02-05T11:25:35.682Z,39.40
2023-02-05T11:28:04.563Z,41.75
2023-02-05T11:30:53.163Z,40.35
2023-02-05T11:33:22.969Z,41.95
2023-02-05T11:36:08.223Z,36.08
2023-02-05T11:38:42.683Z,33.97
2023-02-05T11:41:11.706Z,33.42
2023-02-05T11:43:52.890Z,33.35
2023-02-05T11:46:22.981Z,32.88
2023-02-05T11:48:55.223Z,30.08
2023-02-05T11:51:44.737Z,30.27
2023-02-05T11:54:31.756Z,25.90
2023-02-05T11:57:19.802Z,27.45
2023-02-05T12:00:00.692Z,26.73
2023-02-05T12:02:30.522Z,29.17
2023-02-05T12:05:06.418Z,29.33
2023-02-05T12:07:50.587Z,24.50
2023-02-05T12:10:39.260Z,23.88
2023-02-05T12:13:45.655Z,26.17
2023-02-05T12:16:42.808Z,26.30
2023-02-05T12:19:23.182Z,28.92
2023-02-05T12:22:10.976Z,24.53
2023-02-05T12:24:37.881Z,23.80
2023-02-05T12:27:44.892Z,27.48
2023-02-05T12:30:34.772Z,26.40
2023-02-05T12:33:25.405Z,25.90
2023-02-05T12:36:00.458Z,24.10
2023-02-05T12:38:45.426Z,26.17
2023-02-05T12:41:27.109Z,23.48
2023-02-05T12:44:17.342Z,23.75
2023-02-05T12:46:47.905Z,15.88
2023-02-05T12:49:32.759Z,20.58
2023-02-05T12:52:37.365Z,17.13
2023-02-05T12:55:30.953Z,16.85
2023-02-05T12:58:01.571Z,17.08
2023-02-05T13:00:40.107Z,16.83
2023-02-05T13:03:12.236Z,15.80
2023-02-05T13:05:51.092Z,20.55
2023-02-05T13:08:36.546Z,18.52
2023-02-05T13:11:13.096Z,21.17
2023-02-05T13:14:02.778Z,18.85
2023-02-05T13:16:41.507Z,19.88
2023-02-05T13:19:30.138Z,18.83
2023-02-05T13:22:22.809Z,23.25
2023-02-05T13:25:17.828Z,20.40
2023-02-05T13:28:10.798Z,21.98
2023-02-05T13:30:51.649Z,16.80
2023-02-05T13:33:18.720Z,24.80
2023-02-05T13:36:15.869Z,20.23
2023-02-05T13:39:08.325Z,20.17
2023-02-05T13:41:47.729Z,15.60
2023-02-05T13:44:36.633Z,21.10
2023-02-05T13:47:15.301Z,16.27
2023-02-05T13:50:00.595Z,13.52
2023-02-05T13:52:27.469Z,14.45
2023-02-05T13:55:21.568Z,14.90
2023-02-05T13:58:06.023Z,15.38
2023-02-05T14:00:34.262Z,18.05
2023-02-05T14:03:05.835Z,17.02
2023-02-05T14:05:36.849Z,15.55
2023-02-05T14:08:05.109Z,14.13
2023-02-05T14:10:44.917Z,18.50
2023-02-05T14:13:34.485Z,17.15
2023-02-05T14:16:26.298Z,13.63
2023-02-05T14:19:02.319Z,15.27
2023-02-05T14:21:32.654Z,12.90
2023-02-05T14:24:23.638Z,17.15
2023-02-05T14:29:49.532Z,18.50
2023-02-05T14:32:28.734Z,19.23
2023-02-05T14:34:59.985Z,19.77
2023-02-05T14:37:32.352Z,23.75
2023-02-05T14:40:12.080Z,23.02
2023-02-05T14:42:39.238Z,20.33
2023-02-05T14:45:06.918Z,26.15
2023-02-05T14:47:36.012Z,26.85
2023-02-05T14:50:18.042Z,27.00
2023-02-05T14:52:54.630Z,29.70
2023-02-05T14:55:29.135Z,28.65
2023-02-05T14:57:58.242Z,28.05
2023-02-05T15:00:45.321Z,31.92
2023-02-05T15:03:31.318Z,31.70
2023-02-05T15:06:03.313Z,31.10
2023-02-05T15:08:36.206Z,33.40
2023-02-05T15:11:35.083Z,32.95
2023-02-05T15:14:24.689Z,35.63
2023-02-05T15:17:06.555Z,36.80
2023-02-05T15:19:46.201Z,32.70
2023-02-05T15:22:27.467Z,40.97
2023-02-05T15:24:56.558Z,33.42
2023-02-05T15:27:37.217Z,32.50
2023-02-05T15:30:07.269Z,32.42
2023-02-05T15:32:47.625Z,33.13
2023-02-05T15:35:21.738Z,26.83
2023-02-05T15:38:09.309Z,28.98
2023-02-05T15:40:40.416Z,23.35
2023-02-05T15:43:17.539Z,19.50
2023-02-05T15:45:45.400Z,19.20
2023-02-05T15:48:19.264Z,20.25
2023-02-05T15:50:52.236Z,23.00
2023-02-05T15:53:22.307Z,19.58
2023-02-05T15:55:51.534Z,21.75
2023-02-05T15:58:23.904Z,20.42
2023-02-05T16:00:52.509Z,20.85
2023-02-05T16:03:35.215Z,21.80
2023-02-05T16:06:02.533Z,17.77
2023-02-05T16:08:29.562Z,18.08
2023-02-05T16:11:01.905Z,22.42
2023-02-05T16:13:29.110Z,23.55
2023-02-05T16:16:07.883Z,21.77
2023-02-05T16:18:34.989Z,20.05
2023-02-05T16:21:28.286Z,21.75
2023-02-05T16:24:07.205Z,17.52
2023-02-05T16:26:39.922Z,23.70
2023-02-05T16:29:24.457Z,20.90
2023-02-05T16:32:05.889Z,20.50
2023-02-05T16:34:35.807Z,21.58
2023-02-05T16:37:05.673Z,20.93
2023-02-05T16:39:55.271Z,23.87
2023-02-05T16:42:46.282Z,21.50
2023-02-05T16:45:13.359Z,18.40
2023-02-05T16:47:40.520Z,22.92
2023-02-05T16:50:43.060Z,21.50
2023-02-05T16:53:22.100Z,23.70
2023-02-05T16:55:51.036Z,22.38
2023-02-05T16:58:22.775Z,23.25
2023-02-05T17:00:58.794Z,23.50
2023-02-05T17:03:28.767Z,23.42
2023-02-05T17:06:00.044Z,16.80
2023-02-05T17:08:36.976Z,18.88
2023-02-05T17:11:06.474Z,23.83
2023-02-05T17:13:44.781Z,24.98
2023-02-05T17:16:31.330Z,20.88
2023-02-05T17:19:23.024Z,21.73
2023-02-05T17:22:16.173Z,23.23
2023-02-05T17:24:51.815Z,20.92
2023-02-05T17:27:27.296Z,27.90
2023-02-05T17:29:54.702Z,24.00
2023-02-05T17:32:22.354Z,24.80
2023-02-05T17:34:49.342Z,24.38
2023-02-05T17:37:17.904Z,24.50
2023-02-05T17:39:44.975Z,22.30
2023-02-05T17:42:24.690Z,21.17
2023-02-05T17:44:53.242Z,22.70
2023-02-05T17:47:20.337Z,23.92
2023-02-05T17:49:48.374Z,25.05
2023-02-05T17:52:15.904Z,22.80
2023-02-05T17:54:43.611Z,26.17
2023-02-05T17:57:18.066Z,27.80
2023-02-05T17:59:46.175Z,21.65
2023-02-05T18:02:14.488Z,24.67
2023-02-05T18:04:42.182Z,23.95
2023-02-05T18:07:36.763Z,22.52
2023-02-05T18:10:04.527Z,22.00
2023-02-05T18:12:31.998Z,19.65
2023-02-05T18:14:59.026Z,24.50
2023-02-05T18:17:26.029Z,19.70
2023-02-05T18:19:53.071Z,21.02
2023-02-05T18:22:20.045Z,19.92
2023-02-05T18:24:49.328Z,22.80
2023-02-05T18:27:16.318Z,21.38
2023-02-05T18:29:43.910Z,21.77
2023-02-05T18:32:11.240Z,21.90
2023-02-05T18:34:39.926Z,19.17
2023-02-05T18:37:07.153Z,21.55
2023-02-05T18:39:34.201Z,21.63
2023-02-05T18:42:01.559Z,11.20
2023-02-05T18:44:28.686Z,24.77
2023-02-05T18:46:55.639Z,23.92
2023-02-05T18:49:22.714Z,23.80
2023-02-05T18:51:49.784Z,22.42
2023-02-05T18:54:17.217Z,27.65
2023-02-05T18:56:44.438Z,26.33
2023-02-05T18:59:16.200Z,21.30
2023-02-05T19:01:43.408Z,21.58
2023-02-05T19:04:13.321Z,24.67
2023-02-05T19:06:44.947Z,22.10
2023-02-05T19:09:12.136Z,21.83
2023-02-05T19:11:42.001Z,19.85
2023-02-05T19:14:12.604Z,18.60
2023-02-05T19:16:40.966Z,18.13
2023-02-05T19:19:08.432Z,17.73
2023-02-05T19:21:36.273Z,20.38
2023-02-05T19:24:09.716Z,19.83
2023-02-05T19:26:38.596Z,23.58
2023-02-05T19:29:13.048Z,15.73
2023-02-05T19:31:40.559Z,20.38
2023-02-05T19:34:09.146Z,20.70
2023-02-05T19:36:36.760Z,17.02
2023-02-05T19:39:06.476Z,16.55
2023-02-05T19:41:35.203Z,22.20
2023-02-05T19:44:05.805Z,17.10
2023-02-05T19:46:38.592Z,21.08
2023-02-05T19:49:13.884Z,22.58
2023-02-05T19:51:41.244Z,19.15
2023-02-05T19:54:08.243Z,15.98
2023-02-05T19:56:38.066Z,13.30
2023-02-05T19:59:06.490Z,15.20
2023-02-05T20:01:36.437Z,16.42
2023-02-05T20:04:09.411Z,15.10
2023-02-05T20:06:37.297Z,13.88
2023-02-05T20:09:10.311Z,15.02
2023-02-05T20:11:41.779Z,12.95
2023-02-05T20:14:10.593Z,16.40
2023-02-05T20:16:41.993Z,12.93
2023-02-05T20:19:11.558Z,13.65
2023-02-05T20:21:38.898Z,17.88
2023-02-05T20:24:08.409Z,14.65
2023-02-05T20:26:36.200Z,19.45
2023-02-05T20:29:22.884Z,14.15
2023-02-05T20:31:51.957Z,16.40
2023-02-05T20:34:21.463Z,12.35
2023-02-05T20:36:57.232Z,15.40
2023-02-05T20:39:28.820Z,13.02
2023-02-05T20:41:58.067Z,16.35
2023-02-05T20:44:26.828Z,20.40
2023-02-05T20:46:54.183Z,15.75
2023-02-05T20:49:22.076Z,14.98
2023-02-05T20:51:49.582Z,12.27
2023-02-05T20:54:17.543Z,15.25
2023-02-05T20:56:44.998Z,16.83
2023-02-05T20:59:12.809Z,13.70
2023-02-05T21:01:40.578Z,15.32
2023-02-05T21:04:09.953Z,13.55
2023-02-05T21:06:40.780Z,13.38
2023-02-05T21:09:09.415Z,12.85
2023-02-05T21:11:37.461Z,12.63
2023-02-05T21:14:05.665Z,12.02
2023-02-05T21:16:35.153Z,17.08
2023-02-05T21:19:03.986Z,11.23
2023-02-05T21:21:33.246Z,12.88
2023-02-05T21:24:18.812Z,12.88
2023-02-05T21:26:48.946Z,9.32
2023-02-05T21:29:21.510Z,12.73
2023-02-05T21:31:52.846Z,11.85
2023-02-05T21:34:23.511Z,12.82
2023-02-05T21:36:50.897Z,9.13
2023-02-05T21:39:20.410Z,10.55
2023-02-05T21:41:48.647Z,11.18
2023-02-05T21:44:16.046Z,13.45
2023-02-05T21:46:43.015Z,13.68
2023-02-05T21:49:12.000Z,11.95
2023-02-05T21:51:44.759Z,14.20
2023-02-05T21:54:11.995Z,11.60
2023-02-05T21:56:41.933Z,10.57
2023-02-05T21:59:11.741Z,6.80
2023-02-05T22:01:39.248Z,11.83
2023-02-05T22:04:13.457Z,7.97
2023-02-05T22:06:42.156Z,11.68
2023-02-05T22:09:12.866Z,10.85
2023-02-05T22:11:40.686Z,23.42
2023-02-05T22:14:08.440Z,13.43
2023-02-05T22:16:36.378Z,13.13
2023-02-05T22:19:04.995Z,12.55
2023-02-05T22:21:35.406Z,13.18
2023-02-05T22:24:03.937Z,10.32
2023-02-05T22:26:34.681Z,15.05
2023-02-05T22:29:04.716Z,12.90
2023-02-05T22:31:31.956Z,9.65
2023-02-05T22:34:00.202Z,8.93
2023-02-05T22:36:29.945Z,10.20
2023-02-05T22:39:02.766Z,7.15
2023-02-05T22:41:32.464Z,11.48
2023-02-05T22:44:01.817Z,7.30
2023-02-05T22:46:32.187Z,13.10
2023-02-05T22:49:00.771Z,10.02
2023-02-05T22:51:33.649Z,17.25
2023-02-05T22:54:00.697Z,19.23
2023-02-05T22:56:28.639Z,17.30
2023-02-05T22:58:56.203Z,13.55
2023-02-05T23:01:28.739Z,13.73
2023-02-05T23:03:56.980Z,17.38
2023-02-05T23:06:49.991Z,16.98
2023-02-05T23:09:18.156Z,17.35
2023-02-05T23:11:45.873Z,17.17
2023-02-05T23:14:14.889Z,14.88
2023-02-05T23:16:45.343Z,12.13
2023-02-05T23:19:19.347Z,18.42
2023-02-05T23:21:47.013Z,11.35
2023-02-05T23:24:14.541Z,14.43
2023-02-05T23:26:45.492Z,15.15
2023-02-05T23:29:15.549Z,13.32
2023-02-05T23:31:42.970Z,12.77
2023-02-05T23:34:10.126Z,9.05
2023-02-05T23:36:37.406Z,10.75
2023-02-05T23:39:04.847Z,13.70
2023-02-05T23:41:37.743Z,13.00
2023-02-05T23:44:06.010Z,10.77
2023-02-05T23:46:33.352Z,12.95
2023-02-05T23:49:00.237Z,12.63
2023-02-05T23:51:27.428Z,13.75
2023-02-05T23:53:54.335Z,14.60
2023-02-05T23:56:21.249Z,10.75
2023-02-05T23:58:48.193Z,10.18
